createdAt,value
2019-05-18T00:01:13.337Z,15.93
2019-05-18T00:03:41.750Z,15.74
2019-05-18T00:06:10.156Z,15.69
2019-05-18T00:08:38.605Z,15.76
2019-05-18T00:11:07.022Z,15.82
2019-05-18T00:13:35.460Z,15.84
2019-05-18T00:16:03.903Z,15.89
2019-05-18T00:18:32.296Z,15.82
2019-05-18T00:21:00.726Z,15.65
2019-05-18T00:23:29.213Z,15.59
2019-05-18T00:25:57.645Z,15.33
2019-05-18T00:28:26.062Z,15.49
2019-05-18T00:30:54.486Z,15.62
2019-05-18T00:33:22.946Z,15.34
2019-05-18T00:35:51.480Z,15.30
2019-05-18T00:38:19.901Z,15.56
2019-05-18T00:40:48.341Z,15.62
2019-05-18T00:43:16.734Z,15.61
2019-05-18T00:45:45.213Z,15.53
2019-05-18T00:48:13.721Z,15.58
2019-05-18T00:50:42.246Z,15.48
2019-05-18T00:53:10.815Z,15.51
2019-05-18T00:55:39.208Z,15.60
2019-05-18T00:58:07.615Z,15.58
2019-05-18T01:00:36.064Z,15.43
2019-05-18T01:03:04.595Z,15.53
2019-05-18T01:05:33.077Z,15.52
2019-05-18T01:08:01.494Z,15.35
2019-05-18T01:10:29.934Z,15.44
2019-05-18T01:12:58.451Z,15.34
2019-05-18T01:15:26.873Z,15.42
2019-05-18T01:17:57.653Z,15.29
2019-05-18T01:20:25.555Z,15.29
2019-05-18T01:22:54.010Z,15.40
2019-05-18T01:25:22.409Z,15.30
2019-05-18T01:27:50.862Z,15.37
2019-05-18T01:30:19.646Z,15.25
2019-05-18T01:32:48.204Z,15.21
2019-05-18T01:35:16.777Z,15.12
2019-05-18T01:37:45.214Z,15.30
2019-05-18T01:40:14.090Z,15.35
2019-05-18T01:42:42.523Z,15.35
2019-05-18T01:45:16.822Z,15.26
2019-05-18T01:47:41.575Z,15.13
2019-05-18T01:50:10.925Z,14.74
2019-05-18T01:52:39.435Z,14.98
2019-05-18T01:55:08.185Z,14.93
2019-05-18T01:57:36.743Z,14.92
2019-05-18T02:00:10.582Z,14.88
2019-05-18T02:02:39.029Z,14.68
2019-05-18T02:05:08.007Z,14.83
2019-05-18T02:07:36.403Z,14.61
2019-05-18T02:10:06.791Z,14.69
2019-05-18T02:12:35.194Z,14.51
2019-05-18T02:15:04.663Z,14.56
2019-05-18T02:17:33.145Z,14.50
2019-05-18T02:20:01.597Z,14.61
2019-05-18T02:22:30.007Z,14.60
2019-05-18T02:24:58.446Z,14.52
2019-05-18T02:27:26.859Z,14.55
2019-05-18T02:29:55.297Z,14.46
2019-05-18T02:32:23.758Z,14.46
2019-05-18T02:34:52.223Z,14.52
2019-05-18T02:37:20.673Z,14.47
2019-05-18T02:39:50.742Z,14.50
2019-05-18T02:42:19.155Z,14.55
2019-05-18T02:44:47.705Z,14.47
2019-05-18T02:47:16.135Z,14.44
2019-05-18T02:49:44.662Z,14.35
2019-05-18T02:52:13.053Z,14.44
2019-05-18T02:54:41.509Z,14.37
2019-05-18T02:57:09.968Z,14.33
2019-05-18T02:59:38.379Z,14.42
2019-05-18T03:02:07.011Z,14.34
2019-05-18T03:04:35.450Z,14.38
2019-05-18T03:07:03.977Z,14.24
2019-05-18T03:09:32.418Z,14.23
2019-05-18T03:12:00.825Z,14.26
2019-05-18T03:14:29.223Z,14.35
2019-05-18T03:16:57.675Z,14.32
2019-05-18T03:19:26.173Z,14.58
2019-05-18T03:21:54.623Z,14.63
2019-05-18T03:24:23.158Z,14.51
2019-05-18T03:26:51.562Z,14.55
2019-05-18T03:29:19.982Z,14.64
2019-05-18T03:31:48.457Z,14.56
2019-05-18T03:34:16.899Z,14.20
2019-05-18T03:36:45.545Z,14.14
2019-05-18T03:39:15.755Z,14.28
2019-05-18T03:41:44.200Z,14.52
2019-05-18T03:44:12.658Z,14.38
2019-05-18T03:46:41.189Z,14.43
2019-05-18T03:49:25.499Z,14.49
2019-05-18T03:51:39.776Z,14.51
2019-05-18T03:54:08.238Z,14.51
2019-05-18T03:56:36.645Z,14.46
2019-05-18T03:59:05.109Z,14.49
2019-05-18T04:01:33.530Z,14.35
2019-05-18T04:04:01.994Z,14.42
2019-05-18T04:06:30.495Z,14.44
2019-05-18T04:08:58.908Z,14.15
2019-05-18T04:11:27.519Z,14.12
2019-05-18T04:13:55.928Z,14.38
2019-05-18T04:16:24.427Z,14.38
2019-05-18T04:18:52.853Z,14.11
2019-05-18T04:21:21.283Z,13.97
2019-05-18T04:23:49.688Z,14.10
2019-05-18T04:26:18.134Z,14.27
2019-05-18T04:28:46.648Z,14.38
2019-05-18T04:31:15.073Z,14.15
2019-05-18T04:33:43.507Z,13.97
2019-05-18T04:36:11.938Z,14.00
2019-05-18T04:38:40.327Z,14.22
2019-05-18T04:41:08.878Z,14.05
2019-05-18T04:43:37.308Z,13.89
2019-05-18T04:46:05.703Z,14.15
2019-05-18T04:48:34.123Z,14.18
2019-05-18T04:51:02.627Z,14.37
2019-05-18T04:53:31.030Z,14.09
2019-05-18T04:55:59.476Z,14.00
2019-05-18T04:58:27.885Z,13.99
2019-05-18T05:00:56.283Z,13.91
2019-05-18T05:03:24.739Z,13.94
2019-05-18T05:05:53.158Z,14.03
2019-05-18T05:08:21.584Z,13.94
2019-05-18T05:10:50.007Z,14.00
2019-05-18T05:13:18.426Z,14.27
2019-05-18T05:15:46.860Z,14.21
2019-05-18T05:18:15.268Z,14.18
2019-05-18T05:20:45.557Z,14.34
2019-05-18T05:23:13.968Z,14.32
2019-05-18T05:25:42.397Z,14.31
2019-05-18T05:28:10.839Z,14.13
2019-05-18T05:30:39.246Z,14.28
2019-05-18T05:33:07.683Z,14.33
2019-05-18T05:35:37.795Z,14.39
2019-05-18T05:38:06.447Z,14.45
2019-05-18T05:40:34.885Z,14.47
2019-05-18T05:43:03.296Z,14.31
2019-05-18T05:45:31.776Z,14.26
2019-05-18T05:48:00.241Z,14.42
2019-05-18T05:50:36.037Z,14.33
2019-05-18T05:52:58.865Z,14.18
2019-05-18T05:55:27.308Z,14.33
2019-05-18T05:57:55.719Z,14.39
2019-05-18T06:00:24.144Z,14.42
2019-05-18T06:02:52.694Z,14.45
2019-05-18T06:05:21.105Z,14.48
2019-05-18T06:07:49.537Z,14.49
2019-05-18T06:10:18.521Z,14.57
2019-05-18T06:12:47.343Z,14.60
2019-05-18T06:15:16.095Z,14.66
2019-05-18T06:17:44.509Z,14.76
2019-05-18T06:20:13.118Z,14.72
2019-05-18T06:22:41.557Z,14.82
2019-05-18T06:25:10.339Z,14.85
2019-05-18T06:27:38.947Z,14.82
2019-05-18T06:30:08.017Z,14.92
2019-05-18T06:32:36.515Z,15.09
2019-05-18T06:35:05.905Z,15.11
2019-05-18T06:37:34.354Z,15.13
2019-05-18T06:40:02.786Z,15.19
2019-05-18T06:42:31.421Z,15.23
2019-05-18T06:44:59.983Z,15.28
2019-05-18T06:47:28.560Z,15.29
2019-05-18T06:49:57.025Z,15.35
2019-05-18T06:52:25.507Z,15.32
2019-05-18T06:54:53.935Z,15.31
2019-05-18T06:57:25.586Z,15.29
2019-05-18T06:59:54.561Z,15.30
2019-05-18T07:02:22.971Z,15.31
2019-05-18T07:04:51.396Z,15.35
2019-05-18T07:07:19.805Z,15.27
2019-05-18T07:09:48.239Z,15.31
2019-05-18T07:12:16.759Z,15.33
2019-05-18T07:14:45.249Z,15.35
2019-05-18T07:17:13.619Z,15.35
2019-05-18T07:19:42.016Z,15.32
2019-05-18T07:22:10.447Z,15.34
2019-05-18T07:24:38.853Z,15.34
2019-05-18T07:27:07.282Z,15.39
2019-05-18T07:29:35.709Z,15.42
2019-05-18T07:32:04.221Z,15.43
2019-05-18T07:34:32.622Z,15.43
2019-05-18T07:37:01.121Z,15.44
2019-05-18T07:39:29.531Z,15.39
2019-05-18T07:41:57.936Z,15.47
2019-05-18T07:44:26.471Z,15.47
2019-05-18T07:46:54.899Z,15.50
2019-05-18T07:49:23.302Z,15.49
2019-05-18T07:51:51.744Z,15.50
2019-05-18T07:54:20.222Z,15.50
2019-05-18T07:56:48.624Z,15.54
2019-05-18T07:59:19.773Z,15.56
2019-05-18T08:01:47.275Z,15.53
2019-05-18T08:04:18.711Z,15.56
2019-05-18T08:06:47.136Z,15.58
2019-05-18T08:09:15.552Z,15.54
2019-05-18T08:11:44.032Z,15.61
2019-05-18T08:14:12.441Z,15.62
2019-05-18T08:16:40.893Z,15.61
2019-05-18T08:19:09.399Z,15.65
2019-05-18T08:21:52.266Z,15.61
2019-05-18T08:24:08.241Z,15.59
2019-05-18T08:26:36.978Z,15.60
2019-05-18T08:29:05.470Z,15.67
2019-05-18T08:31:33.960Z,15.66
2019-05-18T08:34:02.576Z,15.67
2019-05-18T08:36:31.107Z,15.68
2019-05-18T08:38:59.692Z,15.66
2019-05-18T08:41:28.103Z,15.70
2019-05-18T08:44:03.818Z,15.67
2019-05-18T08:46:32.216Z,15.71
2019-05-18T08:49:00.721Z,15.71
2019-05-18T08:51:29.188Z,15.72
2019-05-18T08:53:57.652Z,15.75
2019-05-18T08:56:26.065Z,15.78
2019-05-18T08:58:54.661Z,15.80
2019-05-18T09:01:23.230Z,15.80
2019-05-18T09:03:51.633Z,15.83
2019-05-18T09:06:20.075Z,15.83
2019-05-18T09:08:48.774Z,15.92
2019-05-18T09:11:17.231Z,16.05
2019-05-18T09:13:45.634Z,16.22
2019-05-18T09:16:14.089Z,16.34
2019-05-18T09:18:42.546Z,16.41
2019-05-18T09:21:10.989Z,16.47
2019-05-18T09:23:39.457Z,16.50
2019-05-18T09:26:09.497Z,16.53
2019-05-18T09:28:37.917Z,16.58
2019-05-18T09:31:06.348Z,16.66
2019-05-18T09:33:34.882Z,16.77
2019-05-18T09:36:03.315Z,16.81
2019-05-18T09:38:33.654Z,16.87
2019-05-18T09:41:02.237Z,16.95
2019-05-18T09:43:30.706Z,17.00
2019-05-18T09:45:59.208Z,17.15
2019-05-18T09:48:27.723Z,17.17
2019-05-18T09:50:56.141Z,17.15
2019-05-18T09:53:24.717Z,17.19
2019-05-18T09:55:53.206Z,17.17
2019-05-18T09:58:21.729Z,17.24
2019-05-18T10:00:50.220Z,17.38
2019-05-18T10:03:18.756Z,17.42
2019-05-18T10:05:47.174Z,17.49
2019-05-18T10:08:16.286Z,17.48
2019-05-18T10:10:45.179Z,17.52
2019-05-18T10:13:13.587Z,17.49
2019-05-18T10:15:42.088Z,17.49
2019-05-18T10:18:10.514Z,17.59
2019-05-18T10:20:38.964Z,17.72
2019-05-18T10:23:12.672Z,17.81
2019-05-18T10:25:37.498Z,17.81
2019-05-18T10:28:05.904Z,17.86
2019-05-18T10:30:34.435Z,17.90
2019-05-18T10:33:02.905Z,17.95
2019-05-18T10:35:31.318Z,18.04
2019-05-18T10:37:59.994Z,18.12
2019-05-18T10:40:28.429Z,18.27
2019-05-18T10:42:56.840Z,18.33
2019-05-18T10:45:25.279Z,18.32
2019-05-18T10:47:53.682Z,18.41
2019-05-18T10:50:22.134Z,18.40
2019-05-18T10:52:50.544Z,18.35
2019-05-18T10:55:19.043Z,18.22
2019-05-18T10:57:50.617Z,18.15
2019-05-18T11:00:23.034Z,18.15
2019-05-18T11:02:51.483Z,18.16
2019-05-18T11:05:20.053Z,18.18
2019-05-18T11:07:48.486Z,18.22
2019-05-18T11:10:20.180Z,18.16
2019-05-18T11:12:48.645Z,18.17
2019-05-18T11:15:17.864Z,18.21
2019-05-18T11:17:46.778Z,18.19
2019-05-18T11:20:15.553Z,18.23
2019-05-18T11:22:44.555Z,18.27
2019-05-18T11:25:13.420Z,18.32
2019-05-18T11:27:41.931Z,18.42
2019-05-18T11:30:12.748Z,18.42
2019-05-18T11:32:41.193Z,18.45
2019-05-18T11:35:10.519Z,18.47
2019-05-18T11:37:39.118Z,18.47
2019-05-18T11:40:08.988Z,18.47
2019-05-18T11:42:37.502Z,18.56
2019-05-18T11:45:08.929Z,18.50
2019-05-18T11:47:37.399Z,18.54
2019-05-18T11:50:09.263Z,18.62
2019-05-18T11:52:37.875Z,18.72
2019-05-18T11:55:09.647Z,18.68
2019-05-18T11:57:38.052Z,18.75
2019-05-18T12:00:09.341Z,18.81
2019-05-18T12:02:37.816Z,18.85
2019-05-18T12:05:07.862Z,18.80
2019-05-18T12:07:36.329Z,18.77
2019-05-18T12:10:09.561Z,18.82
2019-05-18T12:12:38.078Z,18.84
2019-05-18T12:15:09.007Z,18.83
2019-05-18T12:17:37.497Z,18.87
2019-05-18T12:20:07.940Z,18.89
2019-05-18T12:22:36.356Z,18.86
2019-05-18T12:25:07.063Z,18.86
2019-05-18T12:27:35.586Z,18.87
2019-05-18T12:30:09.157Z,18.84
2019-05-18T12:32:37.661Z,18.88
2019-05-18T12:35:09.909Z,18.86
2019-05-18T12:37:38.335Z,18.90
2019-05-18T12:40:08.251Z,18.89
2019-05-18T12:42:36.690Z,18.85
2019-05-18T12:45:07.454Z,18.84
2019-05-18T12:47:35.918Z,18.84
2019-05-18T12:50:07.125Z,18.88
2019-05-18T12:52:35.584Z,18.89
2019-05-18T12:55:06.328Z,18.98
2019-05-18T12:57:35.279Z,19.01
2019-05-18T13:00:05.585Z,19.07
2019-05-18T13:02:34.014Z,19.04
2019-05-18T13:05:04.269Z,19.05
2019-05-18T13:07:32.622Z,19.10
2019-05-18T13:10:01.057Z,19.14
2019-05-18T13:12:29.471Z,19.21
2019-05-18T13:14:57.906Z,19.20
2019-05-18T13:17:26.308Z,19.22
2019-05-18T13:19:54.758Z,19.22
2019-05-18T13:22:23.169Z,19.25
2019-05-18T13:24:52.284Z,19.16
2019-05-18T13:27:20.842Z,19.08
2019-05-18T13:29:49.285Z,19.03
2019-05-18T13:32:17.826Z,18.95
2019-05-18T13:34:46.324Z,18.87
2019-05-18T13:37:14.933Z,18.82
2019-05-18T13:39:43.420Z,18.81
2019-05-18T13:42:11.834Z,18.85
2019-05-18T13:44:40.280Z,18.93
2019-05-18T13:47:11.499Z,18.91
2019-05-18T13:49:41.600Z,18.91
2019-05-18T13:52:09.996Z,18.94
2019-05-18T13:54:38.433Z,18.97
2019-05-18T13:57:06.901Z,19.00
2019-05-18T13:59:35.384Z,19.01
2019-05-18T14:02:05.339Z,19.05
2019-05-18T14:04:34.262Z,19.06
2019-05-18T14:07:04.783Z,19.06
2019-05-18T14:09:35.933Z,19.09
2019-05-18T14:12:04.434Z,19.06
2019-05-18T14:14:36.162Z,19.04
2019-05-18T14:17:04.658Z,19.04
2019-05-18T14:19:33.155Z,19.07
2019-05-18T14:22:03.649Z,19.07
2019-05-18T14:24:32.069Z,19.07
2019-05-18T14:27:00.533Z,19.07
2019-05-18T14:29:28.926Z,19.09
2019-05-18T14:31:57.374Z,19.10
2019-05-18T14:34:25.820Z,19.06
2019-05-18T14:36:54.404Z,19.06
2019-05-18T14:39:23.298Z,19.06
2019-05-18T14:41:51.840Z,19.08
2019-05-18T14:44:20.242Z,19.11
2019-05-18T14:46:48.633Z,19.10
2019-05-18T14:49:17.073Z,19.10
2019-05-18T14:51:45.491Z,19.11
2019-05-18T14:54:13.933Z,19.17
2019-05-18T14:56:42.356Z,19.12
2019-05-18T14:59:10.759Z,19.19
2019-05-18T15:01:39.299Z,19.16
2019-05-18T15:04:07.787Z,19.13
2019-05-18T15:06:36.187Z,19.15
2019-05-18T15:09:06.473Z,19.16
2019-05-18T15:11:35.164Z,19.18
2019-05-18T15:14:03.608Z,19.16
2019-05-18T15:16:32.080Z,19.16
2019-05-18T15:19:00.518Z,19.16
2019-05-18T15:21:28.980Z,19.18
2019-05-18T15:23:57.385Z,19.20
2019-05-18T15:26:25.806Z,19.18
2019-05-18T15:28:54.227Z,19.17
2019-05-18T15:31:23.896Z,19.17
2019-05-18T15:33:52.443Z,19.17
2019-05-18T15:36:20.846Z,19.17
2019-05-18T15:38:49.273Z,19.15
2019-05-18T15:41:17.685Z,19.16
2019-05-18T15:43:46.121Z,19.18
2019-05-18T15:46:14.540Z,19.17
2019-05-18T15:48:42.975Z,19.16
2019-05-18T15:51:11.390Z,19.17
2019-05-18T15:53:39.792Z,19.18
2019-05-18T15:56:08.287Z,19.17
2019-05-18T15:58:36.679Z,19.19
2019-05-18T16:01:05.255Z,19.16
2019-05-18T16:03:33.654Z,19.18
2019-05-18T16:06:02.232Z,19.20
2019-05-18T16:08:30.745Z,19.20
2019-05-18T16:10:59.198Z,19.19
2019-05-18T16:13:27.643Z,19.22
2019-05-18T16:15:56.045Z,19.26
2019-05-18T16:18:24.461Z,19.25
2019-05-18T16:20:52.863Z,19.27
2019-05-18T16:23:21.398Z,19.25
2019-05-18T16:25:49.895Z,19.24
2019-05-18T16:28:18.303Z,19.24
2019-05-18T16:30:46.759Z,19.22
2019-05-18T16:33:15.203Z,19.24
2019-05-18T16:35:43.600Z,19.23
2019-05-18T16:38:12.086Z,19.24
2019-05-18T16:40:40.483Z,19.28
2019-05-18T16:43:08.887Z,19.29
2019-05-18T16:45:37.322Z,19.29
2019-05-18T16:48:05.813Z,19.30
2019-05-18T16:50:34.222Z,19.32
2019-05-18T16:53:02.832Z,19.29
2019-05-18T16:55:31.389Z,19.26
2019-05-18T16:57:59.766Z,19.27
2019-05-18T17:00:28.398Z,19.25
2019-05-18T17:02:56.915Z,19.27
2019-05-18T17:05:25.309Z,19.31
2019-05-18T17:07:53.795Z,19.30
2019-05-18T17:10:22.298Z,19.35
2019-05-18T17:12:50.862Z,19.31
2019-05-18T17:15:19.729Z,19.29
2019-05-18T17:17:48.155Z,19.26
2019-05-18T17:20:17.221Z,19.21
2019-05-18T17:22:46.083Z,19.13
2019-05-18T17:25:14.685Z,19.09
2019-05-18T17:27:43.141Z,19.07
2019-05-18T17:30:12.182Z,19.03
2019-05-18T17:32:40.597Z,18.99
2019-05-18T17:35:09.772Z,18.99
2019-05-18T17:37:38.240Z,18.97
2019-05-18T17:40:07.347Z,18.99
2019-05-18T17:42:35.909Z,18.96
2019-05-18T17:45:09.453Z,18.96
2019-05-18T17:47:38.058Z,18.92
2019-05-18T17:50:07.930Z,18.91
2019-05-18T17:52:36.349Z,18.92
2019-05-18T17:55:06.555Z,18.91
2019-05-18T17:57:35.027Z,18.91
2019-05-18T18:00:05.348Z,18.89
2019-05-18T18:02:33.875Z,18.88
2019-05-18T18:05:02.364Z,18.88
2019-05-18T18:07:30.811Z,18.86
2019-05-18T18:09:59.207Z,18.86
2019-05-18T18:12:27.634Z,18.86
2019-05-18T18:14:56.169Z,18.83
2019-05-18T18:17:24.582Z,18.83
2019-05-18T18:19:52.988Z,18.83
2019-05-18T18:22:23.836Z,18.79
2019-05-18T18:24:51.705Z,18.77
2019-05-18T18:27:25.086Z,18.80
2019-05-18T18:29:50.479Z,18.76
2019-05-18T18:32:18.981Z,18.73
2019-05-18T18:34:47.483Z,18.65
2019-05-18T18:37:16.017Z,18.70
2019-05-18T18:39:44.441Z,18.65
2019-05-18T18:42:12.924Z,18.66
2019-05-18T18:44:41.462Z,18.65
2019-05-18T18:47:09.890Z,18.53
2019-05-18T18:49:38.311Z,18.59
2019-05-18T18:52:06.713Z,18.56
2019-05-18T18:54:35.181Z,18.55
2019-05-18T18:57:03.679Z,18.54
2019-05-18T18:59:32.100Z,18.53
2019-05-18T19:02:00.541Z,18.47
2019-05-18T19:04:29.002Z,18.41
2019-05-18T19:06:58.988Z,18.44
2019-05-18T19:09:27.416Z,18.34
2019-05-18T19:11:55.942Z,18.35
2019-05-18T19:14:24.943Z,17.03
2019-05-18T19:16:53.466Z,16.38
2019-05-18T19:19:21.937Z,16.26
2019-05-18T19:21:50.357Z,16.16
2019-05-18T19:24:18.773Z,16.35
2019-05-18T19:26:47.275Z,16.30
2019-05-18T19:29:15.674Z,16.41
2019-05-18T19:31:44.119Z,16.30
2019-05-18T19:34:12.519Z,16.18
2019-05-18T19:36:41.023Z,16.28
2019-05-18T19:39:09.419Z,15.69
2019-05-18T19:41:37.951Z,15.69
2019-05-18T19:44:06.343Z,16.21
2019-05-18T19:46:34.839Z,16.27
2019-05-18T19:49:03.238Z,16.16
2019-05-18T19:51:31.708Z,16.09
2019-05-18T19:54:00.129Z,16.26
2019-05-18T19:56:28.529Z,16.23
2019-05-18T19:58:57.179Z,16.27
2019-05-18T20:01:25.610Z,16.13
2019-05-18T20:03:54.029Z,16.03
2019-05-18T20:06:22.466Z,16.02
2019-05-18T20:08:50.886Z,16.11
2019-05-18T20:11:19.303Z,16.05
2019-05-18T20:13:47.734Z,16.09
2019-05-18T20:16:16.138Z,16.08
2019-05-18T20:18:44.587Z,15.90
2019-05-18T20:21:12.987Z,15.99
2019-05-18T20:23:41.388Z,16.07
2019-05-18T20:26:09.808Z,16.02
2019-05-18T20:28:38.235Z,15.94
2019-05-18T20:31:06.740Z,16.04
2019-05-18T20:33:35.179Z,16.02
2019-05-18T20:36:03.590Z,16.01
2019-05-18T20:38:32.037Z,15.95
2019-05-18T20:41:00.499Z,15.52
2019-05-18T20:43:29.106Z,15.13
2019-05-18T20:45:57.545Z,15.28
2019-05-18T20:48:26.182Z,15.35
2019-05-18T20:50:54.632Z,15.26
2019-05-18T20:53:23.196Z,15.34
2019-05-18T20:55:51.655Z,15.54
2019-05-18T20:58:20.062Z,15.43
2019-05-18T21:00:48.513Z,15.38
2019-05-18T21:03:16.909Z,15.15
2019-05-18T21:05:45.305Z,15.11
2019-05-18T21:08:13.768Z,15.46
2019-05-18T21:10:42.275Z,15.27
2019-05-18T21:13:10.681Z,14.99
2019-05-18T21:15:39.107Z,15.35
2019-05-18T21:18:07.578Z,14.99
2019-05-18T21:20:36.118Z,15.25
2019-05-18T21:23:04.533Z,15.47
2019-05-18T21:25:33.432Z,15.19
2019-05-18T21:28:01.871Z,15.45
2019-05-18T21:30:30.294Z,15.32
2019-05-18T21:32:58.728Z,15.59
2019-05-18T21:35:27.133Z,15.44
2019-05-18T21:37:55.580Z,15.25
2019-05-18T21:40:26.167Z,15.51
2019-05-18T21:42:54.366Z,15.54
2019-05-18T21:45:22.763Z,15.48
2019-05-18T21:47:51.215Z,15.55
2019-05-18T21:50:19.689Z,15.25
2019-05-18T21:52:48.115Z,15.10
2019-05-18T21:55:16.571Z,14.91
2019-05-18T21:57:44.968Z,15.05
2019-05-18T22:00:13.617Z,15.32
2019-05-18T22:02:42.075Z,15.42
2019-05-18T22:05:10.752Z,14.93
2019-05-18T22:07:39.137Z,14.69
2019-05-18T22:10:08.376Z,15.28
2019-05-18T22:12:36.875Z,15.09
2019-05-18T22:15:08.840Z,15.32
2019-05-18T22:17:55.306Z,14.95
2019-05-18T22:20:23.866Z,15.13
2019-05-18T22:22:52.263Z,15.23
2019-05-18T22:25:20.701Z,15.07
2019-05-18T22:27:49.115Z,14.83
2019-05-18T22:30:17.547Z,15.22
2019-05-18T22:32:45.997Z,15.31
2019-05-18T22:35:14.598Z,15.27
2019-05-18T22:37:43.028Z,15.29
2019-05-18T22:40:11.605Z,15.32
2019-05-18T22:42:41.137Z,15.12
2019-05-18T22:45:09.752Z,14.64
2019-05-18T22:47:38.642Z,14.91
2019-05-18T22:50:07.761Z,14.98
2019-05-18T22:52:36.260Z,14.57
2019-05-18T22:55:06.444Z,14.51
2019-05-18T22:57:34.920Z,14.74
2019-05-18T23:00:07.203Z,14.91
2019-05-18T23:02:35.647Z,15.10
2019-05-18T23:05:05.015Z,15.14
2019-05-18T23:07:33.452Z,14.97
2019-05-18T23:10:02.049Z,15.24
2019-05-18T23:12:30.560Z,15.29
2019-05-18T23:14:58.998Z,15.20
2019-05-18T23:17:27.607Z,15.16
2019-05-18T23:19:56.005Z,15.25
2019-05-18T23:22:24.494Z,15.14
2019-05-18T23:24:52.898Z,15.21
2019-05-18T23:27:21.364Z,15.20
2019-05-18T23:29:49.793Z,15.04
2019-05-18T23:32:18.278Z,15.13
2019-05-18T23:34:46.705Z,15.08
2019-05-18T23:37:15.185Z,15.06
2019-05-18T23:39:43.690Z,14.99
2019-05-18T23:42:12.084Z,14.97
2019-05-18T23:44:40.524Z,15.12
2019-05-18T23:47:08.938Z,15.10
2019-05-18T23:49:37.379Z,15.00
2019-05-18T23:52:05.841Z,15.09
2019-05-18T23:54:34.296Z,15.02
2019-05-18T23:57:02.709Z,14.99
2019-05-18T23:59:31.218Z,14.99
